createdAt,value
2018-11-07T00:02:28.749Z,17.43
2018-11-07T00:04:57.277Z,23.80
2018-11-07T00:07:25.897Z,15.63
2018-11-07T00:09:54.449Z,16.37
2018-11-07T00:12:23.014Z,18.70
2018-11-07T00:14:51.509Z,17.00
2018-11-07T00:17:20.061Z,15.50
2018-11-07T00:19:48.573Z,13.30
2018-11-07T00:22:17.114Z,13.73
2018-11-07T00:24:45.629Z,14.30
2018-11-07T00:27:14.145Z,15.40
2018-11-07T00:29:42.650Z,16.60
2018-11-07T00:32:11.179Z,15.17
2018-11-07T00:34:39.698Z,16.37
2018-11-07T00:37:08.213Z,12.63
2018-11-07T00:39:36.756Z,14.27
2018-11-07T00:42:05.512Z,13.87
2018-11-07T00:44:34.024Z,19.33
2018-11-07T00:47:02.538Z,16.03
2018-11-07T00:49:31.097Z,18.30
2018-11-07T00:51:59.603Z,17.90
2018-11-07T00:54:28.148Z,13.13
2018-11-07T00:56:56.644Z,13.73
2018-11-07T00:59:25.164Z,12.17
2018-11-07T01:01:53.685Z,9.67
2018-11-07T01:04:22.222Z,11.70
2018-11-07T01:06:50.738Z,12.77
2018-11-07T01:09:19.284Z,10.70
2018-11-07T01:11:47.805Z,9.67
2018-11-07T01:14:16.346Z,7.63
2018-11-07T01:16:44.936Z,11.03
2018-11-07T01:19:13.416Z,11.70
2018-11-07T01:21:41.921Z,8.70
2018-11-07T01:24:10.457Z,10.50
2018-11-07T01:26:38.959Z,9.20
2018-11-07T01:29:07.520Z,8.43
2018-11-07T01:31:36.049Z,8.67
2018-11-07T01:34:04.621Z,9.40
2018-11-07T01:36:33.166Z,7.47
2018-11-07T01:39:01.689Z,10.00
2018-11-07T01:41:30.184Z,9.43
2018-11-07T01:43:58.705Z,7.03
2018-11-07T01:46:27.205Z,7.17
2018-11-07T01:48:55.736Z,7.03
2018-11-07T01:51:24.278Z,9.40
2018-11-07T01:53:52.805Z,9.60
2018-11-07T01:56:21.296Z,8.10
2018-11-07T01:58:49.834Z,7.77
2018-11-07T02:01:18.333Z,6.90
2018-11-07T02:03:46.852Z,7.17
2018-11-07T02:06:15.377Z,7.20
2018-11-07T02:08:43.871Z,7.70
2018-11-07T02:11:12.385Z,8.37
2018-11-07T02:13:40.892Z,8.73
2018-11-07T02:16:09.424Z,9.87
2018-11-07T02:18:37.921Z,6.80
2018-11-07T02:21:06.498Z,7.83
2018-11-07T02:23:34.990Z,6.53
2018-11-07T02:26:03.525Z,6.03
2018-11-07T02:28:32.006Z,7.17
2018-11-07T02:31:00.536Z,7.60
2018-11-07T02:33:29.029Z,6.57
2018-11-07T02:35:57.558Z,7.17
2018-11-07T02:38:26.062Z,7.47
2018-11-07T02:40:54.590Z,8.77
2018-11-07T02:43:23.097Z,5.93
2018-11-07T02:45:51.653Z,9.67
2018-11-07T02:48:20.145Z,6.27
2018-11-07T02:50:48.677Z,5.67
2018-11-07T02:53:17.239Z,5.70
2018-11-07T02:55:45.727Z,6.87
2018-11-07T02:58:14.225Z,6.33
2018-11-07T03:00:42.741Z,6.50
2018-11-07T03:03:11.230Z,6.07
2018-11-07T03:05:39.758Z,6.23
2018-11-07T03:08:08.273Z,7.10
2018-11-07T03:10:36.887Z,7.73
2018-11-07T03:13:05.682Z,5.03
2018-11-07T03:15:34.228Z,6.67
2018-11-07T03:18:02.727Z,7.50
2018-11-07T03:20:31.262Z,4.80
2018-11-07T03:22:59.761Z,5.67
2018-11-07T03:25:28.289Z,5.17
2018-11-07T03:27:56.797Z,6.03
2018-11-07T03:30:25.309Z,10.07
2018-11-07T03:32:53.842Z,7.40
2018-11-07T03:35:26.450Z,6.00
2018-11-07T03:37:55.498Z,6.17
2018-11-07T03:40:24.550Z,5.83
2018-11-07T03:42:53.374Z,5.77
2018-11-07T03:45:27.354Z,8.13
2018-11-07T03:47:55.913Z,5.93
2018-11-07T03:50:24.410Z,5.60
2018-11-07T03:52:53.007Z,4.53
2018-11-07T03:55:21.490Z,5.10
2018-11-07T03:57:50.009Z,5.70
2018-11-07T04:00:18.515Z,5.83
2018-11-07T04:02:47.066Z,8.33
2018-11-07T04:05:15.577Z,6.23
2018-11-07T04:07:44.121Z,6.50
2018-11-07T04:10:12.625Z,5.57
2018-11-07T04:12:41.175Z,6.20
2018-11-07T04:15:10.190Z,4.83
2018-11-07T04:17:38.880Z,5.30
2018-11-07T04:20:08.463Z,6.43
2018-11-07T04:22:36.981Z,5.10
2018-11-07T04:25:06.071Z,7.23
2018-11-07T04:27:34.630Z,5.23
2018-11-07T04:30:03.298Z,7.23
2018-11-07T04:32:31.833Z,5.63
2018-11-07T04:35:00.334Z,4.40
2018-11-07T04:37:28.853Z,4.80
2018-11-07T04:39:57.342Z,3.87
2018-11-07T04:42:25.937Z,4.17
2018-11-07T04:44:54.447Z,7.83
2018-11-07T04:47:22.970Z,4.70
2018-11-07T04:49:53.029Z,3.80
2018-11-07T04:52:21.621Z,7.20
2018-11-07T04:54:50.122Z,3.93
2018-11-07T04:57:18.637Z,5.73
2018-11-07T04:59:47.141Z,4.47
2018-11-07T05:02:15.674Z,4.30
2018-11-07T05:04:44.190Z,5.27
2018-11-07T05:07:12.730Z,6.17
2018-11-07T05:09:41.239Z,5.20
2018-11-07T05:12:09.809Z,3.93
2018-11-07T05:14:38.313Z,6.13
2018-11-07T05:17:06.845Z,3.80
2018-11-07T05:19:35.434Z,4.70
2018-11-07T05:22:03.966Z,7.37
2018-11-07T05:24:32.508Z,6.67
2018-11-07T05:27:01.014Z,5.43
2018-11-07T05:29:29.579Z,5.23
2018-11-07T05:31:58.099Z,4.83
2018-11-07T05:34:26.646Z,5.17
2018-11-07T05:36:55.259Z,4.77
2018-11-07T05:39:24.820Z,6.50
2018-11-07T05:41:53.340Z,4.97
2018-11-07T05:44:21.877Z,7.30
2018-11-07T05:46:50.381Z,5.50
2018-11-07T05:49:18.906Z,5.33
2018-11-07T05:51:47.436Z,4.27
2018-11-07T05:54:15.974Z,6.73
2018-11-07T05:56:44.484Z,6.43
2018-11-07T05:59:13.023Z,4.83
2018-11-07T06:01:41.593Z,4.33
2018-11-07T06:04:10.185Z,8.40
2018-11-07T06:06:38.686Z,6.17
2018-11-07T06:09:07.954Z,5.73
2018-11-07T06:11:36.779Z,5.40
2018-11-07T06:14:05.877Z,9.70
2018-11-07T06:16:34.370Z,8.23
2018-11-07T06:19:03.214Z,8.40
2018-11-07T06:21:31.718Z,6.00
2018-11-07T06:24:00.959Z,11.57
2018-11-07T06:26:29.487Z,5.27
2018-11-07T06:28:58.485Z,7.87
2018-11-07T06:31:30.895Z,6.57
2018-11-07T06:33:59.486Z,9.17
2018-11-07T06:36:27.983Z,10.40
2018-11-07T06:39:04.225Z,10.37
2018-11-07T06:41:36.376Z,6.47
2018-11-07T06:44:11.185Z,8.93
2018-11-07T06:46:45.172Z,6.70
2018-11-07T06:49:18.854Z,6.93
2018-11-07T06:51:53.462Z,7.10
2018-11-07T06:54:33.154Z,14.83
2018-11-07T06:57:06.758Z,14.20
2018-11-07T06:59:40.788Z,26.83
2018-11-07T07:02:19.894Z,34.97
2018-11-07T07:04:54.957Z,21.17
2018-11-07T07:07:30.389Z,10.27
2018-11-07T07:10:08.058Z,16.43
2018-11-07T07:12:43.094Z,9.63
2018-11-07T07:15:21.618Z,6.50
2018-11-07T07:17:56.851Z,12.00
2018-11-07T07:20:33.109Z,19.53
2018-11-07T07:23:09.179Z,42.03
2018-11-07T07:25:43.140Z,31.87
2018-11-07T07:30:58.946Z,14.07
2018-11-07T07:33:31.805Z,15.97
2018-11-07T07:36:11.620Z,6.57
2018-11-07T07:38:45.478Z,7.53
2018-11-07T07:41:17.964Z,11.30
2018-11-07T07:43:46.702Z,9.20
2018-11-07T07:46:15.381Z,9.60
2018-11-07T07:48:43.970Z,16.53
2018-11-07T07:51:12.562Z,17.80
2018-11-07T07:53:41.145Z,17.70
2018-11-07T07:56:09.697Z,18.40
2018-11-07T07:58:38.222Z,23.07
2018-11-07T08:01:06.880Z,17.93
2018-11-07T08:03:35.481Z,15.93
2018-11-07T08:06:05.617Z,18.00
2018-11-07T08:08:34.349Z,22.03
2018-11-07T08:11:03.169Z,23.33
2018-11-07T08:13:31.891Z,25.43
2018-11-07T08:16:01.005Z,22.50
2018-11-07T08:18:29.765Z,20.27
2018-11-07T08:20:58.660Z,23.70
2018-11-07T08:23:27.295Z,18.43
2018-11-07T08:25:55.966Z,20.17
2018-11-07T08:28:24.616Z,16.77
2018-11-07T08:30:53.292Z,13.80
2018-11-07T08:33:21.855Z,16.13
2018-11-07T08:35:50.393Z,15.27
2018-11-07T08:38:18.910Z,14.10
2018-11-07T08:40:47.518Z,14.63
2018-11-07T08:43:16.037Z,11.37
2018-11-07T08:45:45.518Z,16.00
2018-11-07T08:48:14.148Z,15.67
2018-11-07T08:50:42.646Z,12.97
2018-11-07T08:53:11.224Z,17.87
2018-11-07T08:55:39.842Z,13.90
2018-11-07T08:58:08.417Z,12.63
2018-11-07T09:00:36.962Z,12.03
2018-11-07T09:03:05.637Z,14.50
2018-11-07T09:05:34.170Z,16.93
2018-11-07T09:08:03.757Z,14.97
2018-11-07T09:10:32.270Z,15.93
2018-11-07T09:13:00.841Z,11.10
2018-11-07T09:15:30.744Z,10.37
2018-11-07T09:18:00.602Z,6.87
2018-11-07T09:20:29.410Z,9.13
2018-11-07T09:22:58.737Z,6.03
2018-11-07T09:25:27.364Z,9.40
2018-11-07T09:27:55.921Z,5.77
2018-11-07T09:30:24.837Z,6.37
2018-11-07T09:32:53.396Z,4.90
2018-11-07T09:35:22.217Z,5.03
2018-11-07T09:37:50.793Z,18.47
2018-11-07T09:40:21.018Z,8.63
2018-11-07T09:42:50.071Z,5.53
2018-11-07T09:45:20.038Z,5.87
2018-11-07T09:47:48.961Z,4.17
2018-11-07T09:50:18.262Z,6.00
2018-11-07T09:52:47.055Z,5.53
2018-11-07T09:55:20.017Z,2.93
2018-11-07T09:57:50.349Z,5.87
2018-11-07T10:00:20.151Z,3.80
2018-11-07T10:02:48.877Z,1.73
2018-11-07T10:05:18.599Z,3.43
2018-11-07T10:07:47.235Z,6.47
2018-11-07T10:10:21.158Z,2.13
2018-11-07T10:12:50.014Z,2.60
2018-11-07T10:15:19.839Z,2.63
2018-11-07T10:17:48.883Z,6.53
2018-11-07T10:20:21.594Z,2.27
2018-11-07T10:22:50.749Z,1.90
2018-11-07T10:25:23.082Z,1.87
2018-11-07T10:27:52.239Z,1.93
2018-11-07T10:30:21.521Z,3.93
2018-11-07T10:32:51.421Z,3.87
2018-11-07T10:35:20.282Z,1.77
2018-11-07T10:37:50.660Z,1.97
2018-11-07T10:40:20.858Z,2.20
2018-11-07T10:42:49.529Z,4.83
2018-11-07T10:45:20.811Z,1.40
2018-11-07T10:47:50.137Z,2.43
2018-11-07T10:50:21.676Z,2.67
2018-11-07T10:52:50.670Z,1.80
2018-11-07T10:55:19.965Z,4.00
2018-11-07T10:57:48.533Z,1.23
2018-11-07T11:00:22.775Z,2.43
2018-11-07T11:02:57.076Z,2.27
2018-11-07T11:05:25.910Z,8.83
2018-11-07T11:07:54.492Z,1.93
2018-11-07T11:10:23.463Z,4.97
2018-11-07T11:12:52.011Z,3.40
2018-11-07T11:15:21.419Z,2.40
2018-11-07T11:17:50.093Z,3.03
2018-11-07T11:20:20.323Z,2.13
2018-11-07T11:22:48.864Z,1.90
2018-11-07T11:25:17.680Z,1.90
2018-11-07T11:27:46.182Z,9.83
2018-11-07T11:30:14.751Z,4.23
2018-11-07T11:32:43.306Z,2.27
2018-11-07T11:35:12.319Z,1.43
2018-11-07T11:37:40.773Z,5.80
2018-11-07T11:40:11.369Z,2.43
2018-11-07T11:42:40.266Z,2.40
2018-11-07T11:45:10.604Z,1.63
2018-11-07T11:47:39.398Z,0.90
2018-11-07T11:50:10.662Z,1.47
2018-11-07T11:52:39.478Z,3.87
2018-11-07T11:55:08.074Z,2.30
2018-11-07T11:57:36.596Z,1.93
2018-11-07T12:00:07.293Z,4.40
2018-11-07T12:02:35.566Z,3.50
2018-11-07T12:05:04.510Z,2.47
2018-11-07T12:07:33.077Z,2.27
2018-11-07T12:10:01.689Z,1.50
2018-11-07T12:12:30.330Z,3.70
2018-11-07T12:14:58.867Z,1.30
2018-11-07T12:17:27.378Z,0.40
2018-11-07T12:19:55.970Z,1.40
2018-11-07T12:22:24.501Z,2.73
2018-11-07T12:24:53.579Z,0.90
2018-11-07T12:27:22.110Z,2.37
2018-11-07T12:29:50.666Z,1.27
2018-11-07T12:32:19.197Z,1.90
2018-11-07T12:34:47.763Z,1.33
2018-11-07T12:37:16.269Z,1.97
2018-11-07T12:39:44.861Z,4.67
2018-11-07T12:42:13.371Z,3.33
2018-11-07T12:44:41.944Z,0.80
2018-11-07T12:47:10.497Z,1.37
2018-11-07T12:49:39.056Z,1.57
2018-11-07T12:52:07.625Z,1.30
2018-11-07T12:54:36.253Z,2.70
2018-11-07T12:57:05.194Z,3.30
2018-11-07T12:59:33.665Z,3.20
2018-11-07T13:02:02.196Z,1.87
2018-11-07T13:04:31.734Z,4.83
2018-11-07T13:07:00.297Z,0.93
2018-11-07T13:09:28.833Z,4.40
2018-11-07T13:11:57.397Z,2.70
2018-11-07T13:14:25.994Z,2.17
2018-11-07T13:16:54.661Z,2.03
2018-11-07T13:19:23.181Z,1.63
2018-11-07T13:21:51.767Z,1.17
2018-11-07T13:24:20.349Z,1.80
2018-11-07T13:26:48.907Z,1.53
2018-11-07T13:29:17.435Z,2.47
2018-11-07T13:31:46.060Z,5.13
2018-11-07T13:34:14.598Z,3.60
2018-11-07T13:36:43.211Z,1.53
2018-11-07T13:39:13.389Z,1.93
2018-11-07T13:41:42.044Z,1.40
2018-11-07T13:44:10.588Z,2.57
2018-11-07T13:46:39.149Z,1.10
2018-11-07T13:49:07.665Z,1.57
2018-11-07T13:51:36.412Z,2.23
2018-11-07T13:54:04.975Z,2.97
2018-11-07T13:56:33.552Z,2.07
2018-11-07T13:59:02.077Z,3.27
2018-11-07T14:01:30.624Z,7.33
2018-11-07T14:03:59.196Z,5.20
2018-11-07T14:06:27.765Z,3.77
2018-11-07T14:08:56.342Z,2.13
2018-11-07T14:11:24.925Z,4.67
2018-11-07T14:13:53.526Z,4.13
2018-11-07T14:16:22.163Z,3.13
2018-11-07T14:18:50.681Z,2.47
2018-11-07T14:21:19.567Z,5.57
2018-11-07T14:23:48.136Z,57.03
2018-11-07T14:26:17.571Z,42.00
2018-11-07T14:28:46.268Z,6.10
2018-11-07T14:31:16.565Z,1.83
2018-11-07T14:33:45.118Z,5.73
2018-11-07T14:36:13.734Z,2.60
2018-11-07T14:38:43.251Z,4.13
2018-11-07T14:41:11.782Z,2.07
2018-11-07T14:43:40.333Z,2.30
2018-11-07T14:46:09.003Z,3.53
2018-11-07T14:48:39.264Z,6.40
2018-11-07T14:51:09.448Z,2.93
2018-11-07T14:53:38.256Z,2.50
2018-11-07T14:56:08.409Z,3.90
2018-11-07T14:58:38.999Z,2.53
2018-11-07T15:01:09.102Z,3.90
2018-11-07T15:03:37.820Z,2.83
2018-11-07T15:06:09.166Z,3.20
2018-11-07T15:08:37.928Z,2.50
2018-11-07T15:11:06.692Z,3.10
2018-11-07T15:13:35.236Z,3.40
2018-11-07T15:16:03.830Z,2.73
2018-11-07T15:18:32.630Z,2.20
2018-11-07T15:21:01.395Z,6.80
2018-11-07T15:23:29.953Z,2.03
2018-11-07T15:25:58.479Z,6.83
2018-11-07T15:28:27.017Z,2.40
2018-11-07T15:30:55.530Z,3.00
2018-11-07T15:33:24.060Z,3.27
2018-11-07T15:35:52.582Z,3.67
2018-11-07T15:38:21.185Z,4.23
2018-11-07T15:40:49.765Z,2.60
2018-11-07T15:43:19.084Z,3.50
2018-11-07T15:45:47.653Z,3.03
2018-11-07T15:48:16.207Z,3.70
2018-11-07T15:50:50.245Z,4.70
2018-11-07T15:53:18.786Z,6.27
2018-11-07T15:55:47.287Z,4.50
2018-11-07T15:58:15.811Z,2.70
2018-11-07T16:00:44.376Z,2.47
2018-11-07T16:03:12.913Z,2.87
2018-11-07T16:05:41.458Z,3.77
2018-11-07T16:08:10.030Z,5.93
2018-11-07T16:10:38.538Z,7.97
2018-11-07T16:13:07.163Z,4.23
2018-11-07T16:15:35.755Z,2.33
2018-11-07T16:18:05.109Z,2.17
2018-11-07T16:20:34.253Z,2.43
2018-11-07T16:23:03.668Z,5.07
2018-11-07T16:25:32.132Z,2.37
2018-11-07T16:28:00.674Z,4.13
2018-11-07T16:30:29.195Z,1.77
2018-11-07T16:32:57.745Z,4.90
2018-11-07T16:35:26.242Z,2.17
2018-11-07T16:37:54.809Z,3.43
2018-11-07T16:40:23.320Z,5.07
2018-11-07T16:42:51.862Z,5.60
2018-11-07T16:45:20.383Z,4.37
2018-11-07T16:47:49.249Z,3.97
2018-11-07T16:50:18.302Z,2.10
2018-11-07T16:52:46.924Z,4.27
2018-11-07T16:55:15.692Z,3.87
2018-11-07T16:57:44.207Z,4.70
2018-11-07T17:00:19.230Z,4.13
2018-11-07T17:02:48.301Z,2.47
2018-11-07T17:05:17.542Z,4.97
2018-11-07T17:07:46.413Z,6.20
2018-11-07T17:10:15.095Z,1.70
2018-11-07T17:12:43.753Z,7.57
2018-11-07T17:15:12.466Z,1.97
2018-11-07T17:17:40.973Z,3.93
2018-11-07T17:20:11.174Z,5.10
2018-11-07T17:22:39.852Z,2.73
2018-11-07T17:25:10.483Z,3.27
2018-11-07T17:27:39.493Z,3.63
2018-11-07T17:30:09.202Z,5.80
2018-11-07T17:32:39.118Z,1.67
2018-11-07T17:35:09.370Z,5.83
2018-11-07T17:37:37.927Z,3.70
2018-11-07T17:40:09.273Z,4.27
2018-11-07T17:42:38.255Z,2.40
2018-11-07T17:45:09.522Z,2.07
2018-11-07T17:47:38.484Z,2.73
2018-11-07T17:50:07.854Z,4.50
2018-11-07T17:52:36.576Z,3.17
2018-11-07T17:55:05.582Z,5.90
2018-11-07T17:57:34.094Z,2.67
2018-11-07T18:00:02.671Z,2.10
2018-11-07T18:02:31.534Z,5.70
2018-11-07T18:05:00.108Z,7.47
2018-11-07T18:07:28.621Z,5.20
2018-11-07T18:09:57.288Z,3.70
2018-11-07T18:12:25.734Z,3.77
2018-11-07T18:14:54.382Z,6.60
2018-11-07T18:17:22.938Z,4.30
2018-11-07T18:19:51.716Z,4.33
2018-11-07T18:22:20.237Z,5.23
2018-11-07T18:24:48.766Z,4.20
2018-11-07T18:27:17.297Z,3.90
2018-11-07T18:29:45.834Z,7.10
2018-11-07T18:32:14.442Z,6.13
2018-11-07T18:34:42.973Z,7.13
2018-11-07T18:37:11.481Z,5.93
2018-11-07T18:39:40.009Z,7.67
2018-11-07T18:42:08.711Z,3.43
2018-11-07T18:44:37.276Z,6.67
2018-11-07T18:47:06.000Z,3.83
2018-11-07T18:49:34.589Z,3.63
2018-11-07T18:52:03.173Z,8.93
2018-11-07T18:54:31.702Z,6.83
2018-11-07T18:57:00.239Z,9.20
2018-11-07T18:59:28.746Z,7.53
2018-11-07T19:01:57.276Z,11.20
2018-11-07T19:04:25.793Z,8.43
2018-11-07T19:06:54.648Z,7.13
2018-11-07T19:09:23.172Z,3.93
2018-11-07T19:11:53.367Z,5.20
2018-11-07T19:14:21.905Z,4.60
2018-11-07T19:16:50.616Z,4.03
2018-11-07T19:19:19.559Z,5.57
2018-11-07T19:21:48.101Z,4.33
2018-11-07T19:24:16.610Z,4.77
2018-11-07T19:26:45.289Z,5.83
2018-11-07T19:29:13.697Z,6.50
2018-11-07T19:31:42.252Z,7.20
2018-11-07T19:34:10.773Z,6.93
2018-11-07T19:36:39.311Z,5.90
2018-11-07T19:39:08.802Z,5.70
2018-11-07T19:41:37.993Z,6.37
2018-11-07T19:44:06.526Z,6.23
2018-11-07T19:46:35.283Z,5.93
2018-11-07T19:49:03.794Z,8.83
2018-11-07T19:51:32.346Z,5.97
2018-11-07T19:54:00.983Z,8.43
2018-11-07T19:56:29.401Z,5.47
2018-11-07T19:58:57.910Z,4.57
2018-11-07T20:01:26.450Z,5.53
2018-11-07T20:03:54.963Z,3.53
2018-11-07T20:06:23.509Z,4.87
2018-11-07T20:08:52.010Z,3.63
2018-11-07T20:11:22.125Z,6.67
2018-11-07T20:13:50.649Z,9.67
2018-11-07T20:16:19.183Z,6.10
2018-11-07T20:18:47.712Z,6.67
2018-11-07T20:21:16.250Z,4.00
2018-11-07T20:23:44.752Z,4.23
2018-11-07T20:26:13.290Z,6.00
2018-11-07T20:28:41.863Z,6.80
2018-11-07T20:31:10.352Z,4.57
2018-11-07T20:33:38.854Z,5.57
2018-11-07T20:36:07.422Z,3.37
2018-11-07T20:38:35.896Z,4.27
2018-11-07T20:41:04.408Z,4.33
2018-11-07T20:43:32.936Z,4.43
2018-11-07T20:46:01.447Z,3.83
2018-11-07T20:48:29.980Z,5.07
2018-11-07T20:50:58.518Z,3.67
2018-11-07T20:53:27.166Z,6.43
2018-11-07T20:55:55.674Z,5.20
2018-11-07T20:58:24.219Z,4.70
2018-11-07T21:00:52.722Z,3.87
2018-11-07T21:03:21.283Z,4.97
2018-11-07T21:05:49.863Z,7.00
2018-11-07T21:08:19.073Z,5.97
2018-11-07T21:10:47.666Z,5.37
2018-11-07T21:13:16.394Z,2.60
2018-11-07T21:15:44.984Z,5.43
2018-11-07T21:18:13.529Z,6.07
2018-11-07T21:20:42.035Z,3.93
2018-11-07T21:23:10.572Z,6.13
2018-11-07T21:25:39.094Z,6.40
2018-11-07T21:28:07.696Z,4.13
2018-11-07T21:30:36.202Z,3.37
2018-11-07T21:33:04.783Z,3.93
2018-11-07T21:35:33.293Z,6.97
2018-11-07T21:38:08.449Z,6.77
2018-11-07T21:40:36.958Z,5.27
2018-11-07T21:43:05.556Z,3.97
2018-11-07T21:45:34.060Z,4.87
2018-11-07T21:48:02.762Z,4.90
2018-11-07T21:50:31.269Z,5.37
2018-11-07T21:52:59.827Z,5.90
2018-11-07T21:55:28.339Z,7.30
2018-11-07T21:57:56.944Z,5.23
2018-11-07T22:00:25.454Z,5.87
2018-11-07T22:02:54.093Z,7.57
2018-11-07T22:05:22.525Z,7.67
2018-11-07T22:07:51.053Z,5.47
2018-11-07T22:10:19.721Z,8.17
2018-11-07T22:12:48.305Z,5.97
2018-11-07T22:15:16.824Z,6.93
2018-11-07T22:17:45.348Z,4.00
2018-11-07T22:20:17.521Z,4.67
2018-11-07T22:22:46.216Z,4.57
2018-11-07T22:25:15.369Z,4.07
2018-11-07T22:27:44.010Z,2.57
2018-11-07T22:30:14.650Z,4.43
2018-11-07T22:32:43.181Z,2.83
2018-11-07T22:35:13.881Z,2.40
2018-11-07T22:37:42.848Z,2.07
2018-11-07T22:40:12.892Z,2.80
2018-11-07T22:42:41.415Z,1.70
2018-11-07T22:45:10.981Z,1.53
2018-11-07T22:47:39.969Z,2.10
2018-11-07T22:50:10.397Z,2.50
2018-11-07T22:52:39.159Z,1.80
2018-11-07T22:55:08.090Z,2.47
2018-11-07T22:57:36.623Z,2.73
2018-11-07T23:00:13.403Z,2.63
2018-11-07T23:02:42.014Z,3.73
2018-11-07T23:05:10.561Z,2.33
2018-11-07T23:07:39.070Z,2.13
2018-11-07T23:10:07.625Z,2.70
2018-11-07T23:12:36.171Z,2.47
2018-11-07T23:15:04.968Z,3.90
2018-11-07T23:17:33.502Z,3.50
2018-11-07T23:20:02.086Z,2.93
2018-11-07T23:22:30.646Z,2.60
2018-11-07T23:24:59.253Z,2.47
2018-11-07T23:27:27.757Z,1.93
2018-11-07T23:29:56.281Z,1.83
2018-11-07T23:32:24.781Z,3.17
2018-11-07T23:34:53.309Z,4.90
2018-11-07T23:37:21.829Z,2.63
2018-11-07T23:39:50.370Z,2.20
2018-11-07T23:42:18.878Z,2.90
2018-11-07T23:44:47.398Z,3.23
2018-11-07T23:47:15.973Z,2.83
2018-11-07T23:49:44.523Z,3.27
2018-11-07T23:52:17.249Z,2.47
2018-11-07T23:54:45.773Z,2.07
2018-11-07T23:57:14.287Z,1.57
2018-11-07T23:59:43.339Z,1.77
